sensor_id;sensor_type;location;lat;lon;timestamp;P1;P2;P0
82622;PMS5003;72291;55.002;-1.592;2023-09-19T00:00:39;1;1;
82622;PMS5003;72291;55.002;-1.592;2023-09-19T00:03:05;0;0;
82622;PMS5003;72291;55.002;-1.592;2023-09-19T00:05:29;0;0;
82622;PMS5003;72291;55.002;-1.592;2023-09-19T00:07:54;0;0;
82622;PMS5003;72291;55.002;-1.592;2023-09-19T00:10:19;0;0;
82622;PMS5003;72291;55.002;-1.592;2023-09-19T00:12:44;2;1;
82622;PMS5003;72291;55.002;-1.592;2023-09-19T00:15:09;1;0;
82622;PMS5003;72291;55.002;-1.592;2023-09-19T00:17:34;0;0;
82622;PMS5003;72291;55.002;-1.592;2023-09-19T00:20:00;0;0;
82622;PMS5003;72291;55.002;-1.592;2023-09-19T00:22:25;0;0;
82622;PMS5003;72291;55.002;-1.592;2023-09-19T00:24:55;0;0;
82622;PMS5003;72291;55.002;-1.592;2023-09-19T00:27:19;1;0;
82622;PMS5003;72291;55.002;-1.592;2023-09-19T00:29:40;2;0;
82622;PMS5003;72291;55.002;-1.592;2023-09-19T00:32:06;1;0;
82622;PMS5003;72291;55.002;-1.592;2023-09-19T00:34:31;1;0;
82622;PMS5003;72291;55.002;-1.592;2023-09-19T00:36:56;1;1;
82622;PMS5003;72291;55.002;-1.592;2023-09-19T00:39:21;1;1;
82622;PMS5003;72291;55.002;-1.592;2023-09-19T00:41:46;1;1;
82622;PMS5003;72291;55.002;-1.592;2023-09-19T00:44:12;2;1;
82622;PMS5003;72291;55.002;-1.592;2023-09-19T00:46:37;0;0;
82622;PMS5003;72291;55.002;-1.592;2023-09-19T00:49:02;2;1;
82622;PMS5003;72291;55.002;-1.592;2023-09-19T00:51:27;0;0;
82622;PMS5003;72291;55.002;-1.592;2023-09-19T00:53:52;0;0;
82622;PMS5003;72291;55.002;-1.592;2023-09-19T00:56:18;0;0;
82622;PMS5003;72291;55.002;-1.592;2023-09-19T00:58:43;1;0;
82622;PMS5003;72291;55.002;-1.592;2023-09-19T01:01:08;0;0;
82622;PMS5003;72291;55.002;-1.592;2023-09-19T01:03:33;0;0;
82622;PMS5003;72291;55.002;-1.592;2023-09-19T01:05:59;0;0;
82622;PMS5003;72291;55.002;-1.592;2023-09-19T01:08:24;0;0;
82622;PMS5003;72291;55.002;-1.592;2023-09-19T01:10:51;1;0;
82622;PMS5003;72291;55.002;-1.592;2023-09-19T01:13:16;1;1;
82622;PMS5003;72291;55.002;-1.592;2023-09-19T01:15:44;2;0;
82622;PMS5003;72291;55.002;-1.592;2023-09-19T01:18:08;1;0;
82622;PMS5003;72291;55.002;-1.592;2023-09-19T01:20:33;1;0;
82622;PMS5003;72291;55.002;-1.592;2023-09-19T01:22:58;0;0;
82622;PMS5003;72291;55.002;-1.592;2023-09-19T01:30:10;1;0;
82622;PMS5003;72291;55.002;-1.592;2023-09-19T01:32:35;0;0;
82622;PMS5003;72291;55.002;-1.592;2023-09-19T01:35:00;0;0;
82622;PMS5003;72291;55.002;-1.592;2023-09-19T01:37:25;1;0;
82622;PMS5003;72291;55.002;-1.592;2023-09-19T01:39:51;0;0;
82622;PMS5003;72291;55.002;-1.592;2023-09-19T01:42:19;1;0;
82622;PMS5003;72291;55.002;-1.592;2023-09-19T01:44:44;0;0;
82622;PMS5003;72291;55.002;-1.592;2023-09-19T01:47:08;0;0;
82622;PMS5003;72291;55.002;-1.592;2023-09-19T01:49:33;0;0;
82622;PMS5003;72291;55.002;-1.592;2023-09-19T01:52:05;1;1;
82622;PMS5003;72291;55.002;-1.592;2023-09-19T01:54:24;0;0;
82622;PMS5003;72291;55.002;-1.592;2023-09-19T01:56:48;0;0;
82622;PMS5003;72291;55.002;-1.592;2023-09-19T01:59:12;1;0;
82622;PMS5003;72291;55.002;-1.592;2023-09-19T02:01:37;1;0;
82622;PMS5003;72291;55.002;-1.592;2023-09-19T02:04:02;1;0;
82622;PMS5003;72291;55.002;-1.592;2023-09-19T02:06:27;1;1;
82622;PMS5003;72291;55.002;-1.592;2023-09-19T02:08:52;1;0;
82622;PMS5003;72291;55.002;-1.592;2023-09-19T02:11:17;2;1;
82622;PMS5003;72291;55.002;-1.592;2023-09-19T02:13:43;2;1;
82622;PMS5003;72291;55.002;-1.592;2023-09-19T02:16:07;0;0;
82622;PMS5003;72291;55.002;-1.592;2023-09-19T02:18:33;0;0;
82622;PMS5003;72291;55.002;-1.592;2023-09-19T02:20:58;1;0;
82622;PMS5003;72291;55.002;-1.592;2023-09-19T02:23:23;0;0;
82622;PMS5003;72291;55.002;-1.592;2023-09-19T02:25:52;1;1;
82622;PMS5003;72291;55.002;-1.592;2023-09-19T02:28:13;1;1;
82622;PMS5003;72291;55.002;-1.592;2023-09-19T02:30:38;1;1;
82622;PMS5003;72291;55.002;-1.592;2023-09-19T02:33:03;1;0;
82622;PMS5003;72291;55.002;-1.592;2023-09-19T02:35:28;1;0;
82622;PMS5003;72291;55.002;-1.592;2023-09-19T02:37:54;2;2;
82622;PMS5003;72291;55.002;-1.592;2023-09-19T02:40:19;1;1;
82622;PMS5003;72291;55.002;-1.592;2023-09-19T02:42:44;1;1;
82622;PMS5003;72291;55.002;-1.592;2023-09-19T02:45:09;3;2;
82622;PMS5003;72291;55.002;-1.592;2023-09-19T02:47:34;2;2;
82622;PMS5003;72291;55.002;-1.592;2023-09-19T02:49:59;4;2;
82622;PMS5003;72291;55.002;-1.592;2023-09-19T02:52:24;1;1;
82622;PMS5003;72291;55.002;-1.592;2023-09-19T02:54:49;1;1;
82622;PMS5003;72291;55.002;-1.592;2023-09-19T02:57:15;1;0;
82622;PMS5003;72291;55.002;-1.592;2023-09-19T02:59:40;3;2;
82622;PMS5003;72291;55.002;-1.592;2023-09-19T03:02:05;0;0;
82622;PMS5003;72291;55.002;-1.592;2023-09-19T03:04:30;1;0;
82622;PMS5003;72291;55.002;-1.592;2023-09-19T03:06:55;0;0;
82622;PMS5003;72291;55.002;-1.592;2023-09-19T03:09:20;1;0;
82622;PMS5003;72291;55.002;-1.592;2023-09-19T03:11:45;1;0;
82622;PMS5003;72291;55.002;-1.592;2023-09-19T03:14:10;2;2;
82622;PMS5003;72291;55.002;-1.592;2023-09-19T03:16:35;1;1;
82622;PMS5003;72291;55.002;-1.592;2023-09-19T03:19:01;3;2;
82622;PMS5003;72291;55.002;-1.592;2023-09-19T03:21:26;0;0;
82622;PMS5003;72291;55.002;-1.592;2023-09-19T03:23:51;1;1;
82622;PMS5003;72291;55.002;-1.592;2023-09-19T03:26:16;0;0;
82622;PMS5003;72291;55.002;-1.592;2023-09-19T03:28:41;3;1;
82622;PMS5003;72291;55.002;-1.592;2023-09-19T03:31:07;1;1;
82622;PMS5003;72291;55.002;-1.592;2023-09-19T03:33:32;0;0;
82622;PMS5003;72291;55.002;-1.592;2023-09-19T03:35:57;2;1;
82622;PMS5003;72291;55.002;-1.592;2023-09-19T03:38:22;1;0;
82622;PMS5003;72291;55.002;-1.592;2023-09-19T03:40:47;3;2;
82622;PMS5003;72291;55.002;-1.592;2023-09-19T03:43:12;2;1;
82622;PMS5003;72291;55.002;-1.592;2023-09-19T03:45:37;2;1;
82622;PMS5003;72291;55.002;-1.592;2023-09-19T03:48:06;0;0;
82622;PMS5003;72291;55.002;-1.592;2023-09-19T03:50:28;2;1;
82622;PMS5003;72291;55.002;-1.592;2023-09-19T03:52:56;2;1;
82622;PMS5003;72291;55.002;-1.592;2023-09-19T03:55:18;1;1;
82622;PMS5003;72291;55.002;-1.592;2023-09-19T03:57:47;2;1;
82622;PMS5003;72291;55.002;-1.592;2023-09-19T04:00:09;8;5;
82622;PMS5003;72291;55.002;-1.592;2023-09-19T04:02:34;2;0;
82622;PMS5003;72291;55.002;-1.592;2023-09-19T04:04:59;3;0;
82622;PMS5003;72291;55.002;-1.592;2023-09-19T04:07:24;3;1;
82622;PMS5003;72291;55.002;-1.592;2023-09-19T04:09:49;5;2;
82622;PMS5003;72291;55.002;-1.592;2023-09-19T04:12:14;2;1;
82622;PMS5003;72291;55.002;-1.592;2023-09-19T04:14:40;4;3;
82622;PMS5003;72291;55.002;-1.592;2023-09-19T04:17:05;1;0;
82622;PMS5003;72291;55.002;-1.592;2023-09-19T04:19:30;3;2;
82622;PMS5003;72291;55.002;-1.592;2023-09-19T04:21:55;2;1;
82622;PMS5003;72291;55.002;-1.592;2023-09-19T04:24:20;0;0;
82622;PMS5003;72291;55.002;-1.592;2023-09-19T04:26:45;2;0;
82622;PMS5003;72291;55.002;-1.592;2023-09-19T04:29:10;0;0;
82622;PMS5003;72291;55.002;-1.592;2023-09-19T04:31:35;0;0;
82622;PMS5003;72291;55.002;-1.592;2023-09-19T04:34:00;0;0;
82622;PMS5003;72291;55.002;-1.592;2023-09-19T04:36:26;1;1;
82622;PMS5003;72291;55.002;-1.592;2023-09-19T04:38:51;3;1;
82622;PMS5003;72291;55.002;-1.592;2023-09-19T04:41:16;1;1;
82622;PMS5003;72291;55.002;-1.592;2023-09-19T04:43:41;0;0;
82622;PMS5003;72291;55.002;-1.592;2023-09-19T04:46:06;0;0;
82622;PMS5003;72291;55.002;-1.592;2023-09-19T04:48:32;3;1;
82622;PMS5003;72291;55.002;-1.592;2023-09-19T04:50:57;2;1;
82622;PMS5003;72291;55.002;-1.592;2023-09-19T04:53:22;5;4;
82622;PMS5003;72291;55.002;-1.592;2023-09-19T04:55:49;1;0;
82622;PMS5003;72291;55.002;-1.592;2023-09-19T04:58:12;2;1;
82622;PMS5003;72291;55.002;-1.592;2023-09-19T05:00:37;2;0;
82622;PMS5003;72291;55.002;-1.592;2023-09-19T05:03:03;2;2;
82622;PMS5003;72291;55.002;-1.592;2023-09-19T05:05:27;1;0;
82622;PMS5003;72291;55.002;-1.592;2023-09-19T05:07:53;2;1;
82622;PMS5003;72291;55.002;-1.592;2023-09-19T05:10:18;5;5;
82622;PMS5003;72291;55.002;-1.592;2023-09-19T05:12:43;0;0;
82622;PMS5003;72291;55.002;-1.592;2023-09-19T05:15:09;1;1;
82622;PMS5003;72291;55.002;-1.592;2023-09-19T05:17:33;1;0;
82622;PMS5003;72291;55.002;-1.592;2023-09-19T05:19:58;3;1;
82622;PMS5003;72291;55.002;-1.592;2023-09-19T05:22:23;1;0;
82622;PMS5003;72291;55.002;-1.592;2023-09-19T05:24:49;1;1;
82622;PMS5003;72291;55.002;-1.592;2023-09-19T05:27:14;2;1;
82622;PMS5003;72291;55.002;-1.592;2023-09-19T05:29:39;1;1;
82622;PMS5003;72291;55.002;-1.592;2023-09-19T05:32:05;6;5;
82622;PMS5003;72291;55.002;-1.592;2023-09-19T05:34:30;2;1;
82622;PMS5003;72291;55.002;-1.592;2023-09-19T05:36:55;2;2;
82622;PMS5003;72291;55.002;-1.592;2023-09-19T05:39:20;6;4;
82622;PMS5003;72291;55.002;-1.592;2023-09-19T05:41:45;2;1;
82622;PMS5003;72291;55.002;-1.592;2023-09-19T05:44:10;3;1;
82622;PMS5003;72291;55.002;-1.592;2023-09-19T05:46:35;1;1;
82622;PMS5003;72291;55.002;-1.592;2023-09-19T05:49:00;2;1;
82622;PMS5003;72291;55.002;-1.592;2023-09-19T05:51:26;2;2;
82622;PMS5003;72291;55.002;-1.592;2023-09-19T05:53:51;4;2;
82622;PMS5003;72291;55.002;-1.592;2023-09-19T05:56:16;2;1;
82622;PMS5003;72291;55.002;-1.592;2023-09-19T05:58:41;2;1;
82622;PMS5003;72291;55.002;-1.592;2023-09-19T06:01:06;2;2;
82622;PMS5003;72291;55.002;-1.592;2023-09-19T06:03:31;0;0;
82622;PMS5003;72291;55.002;-1.592;2023-09-19T06:05:56;2;2;
82622;PMS5003;72291;55.002;-1.592;2023-09-19T06:08:21;3;2;
82622;PMS5003;72291;55.002;-1.592;2023-09-19T06:10:47;2;2;
82622;PMS5003;72291;55.002;-1.592;2023-09-19T06:13:12;0;0;
82622;PMS5003;72291;55.002;-1.592;2023-09-19T06:15:37;2;1;
82622;PMS5003;72291;55.002;-1.592;2023-09-19T06:18:02;1;0;
82622;PMS5003;72291;55.002;-1.592;2023-09-19T06:20:27;3;2;
82622;PMS5003;72291;55.002;-1.592;2023-09-19T06:22:52;2;2;
82622;PMS5003;72291;55.002;-1.592;2023-09-19T06:25:17;2;1;
82622;PMS5003;72291;55.002;-1.592;2023-09-19T06:27:43;2;2;
82622;PMS5003;72291;55.002;-1.592;2023-09-19T06:30:08;3;2;
82622;PMS5003;72291;55.002;-1.592;2023-09-19T06:32:33;3;2;
82622;PMS5003;72291;55.002;-1.592;2023-09-19T06:34:58;4;4;
82622;PMS5003;72291;55.002;-1.592;2023-09-19T06:37:23;2;1;
82622;PMS5003;72291;55.002;-1.592;2023-09-19T06:39:49;7;6;
82622;PMS5003;72291;55.002;-1.592;2023-09-19T06:42:14;4;2;
82622;PMS5003;72291;55.002;-1.592;2023-09-19T06:44:39;3;1;
82622;PMS5003;72291;55.002;-1.592;2023-09-19T06:47:04;3;2;
82622;PMS5003;72291;55.002;-1.592;2023-09-19T06:49:29;3;3;
82622;PMS5003;72291;55.002;-1.592;2023-09-19T06:51:54;3;2;
82622;PMS5003;72291;55.002;-1.592;2023-09-19T06:54:19;3;3;
82622;PMS5003;72291;55.002;-1.592;2023-09-19T06:56:45;2;2;
82622;PMS5003;72291;55.002;-1.592;2023-09-19T06:59:10;3;1;
82622;PMS5003;72291;55.002;-1.592;2023-09-19T07:01:35;3;3;
82622;PMS5003;72291;55.002;-1.592;2023-09-19T07:04:00;2;2;
82622;PMS5003;72291;55.002;-1.592;2023-09-19T07:06:25;4;2;
82622;PMS5003;72291;55.002;-1.592;2023-09-19T07:08:50;6;4;
82622;PMS5003;72291;55.002;-1.592;2023-09-19T07:11:16;4;3;
82622;PMS5003;72291;55.002;-1.592;2023-09-19T07:13:41;3;1;
82622;PMS5003;72291;55.002;-1.592;2023-09-19T07:16:06;3;3;
82622;PMS5003;72291;55.002;-1.592;2023-09-19T07:18:31;3;3;
82622;PMS5003;72291;55.002;-1.592;2023-09-19T07:20:56;3;2;
82622;PMS5003;72291;55.002;-1.592;2023-09-19T07:23:21;2;1;
82622;PMS5003;72291;55.002;-1.592;2023-09-19T07:25:47;5;3;
82622;PMS5003;72291;55.002;-1.592;2023-09-19T07:28:13;4;4;
82622;PMS5003;72291;55.002;-1.592;2023-09-19T07:30:37;4;4;
82622;PMS5003;72291;55.002;-1.592;2023-09-19T07:33:02;5;3;
82622;PMS5003;72291;55.002;-1.592;2023-09-19T07:35:28;5;3;
82622;PMS5003;72291;55.002;-1.592;2023-09-19T07:37:52;4;3;
82622;PMS5003;72291;55.002;-1.592;2023-09-19T07:40:18;4;3;
82622;PMS5003;72291;55.002;-1.592;2023-09-19T07:42:43;5;2;
82622;PMS5003;72291;55.002;-1.592;2023-09-19T07:45:08;5;4;
82622;PMS5003;72291;55.002;-1.592;2023-09-19T07:47:33;4;3;
82622;PMS5003;72291;55.002;-1.592;2023-09-19T07:49:58;4;3;
82622;PMS5003;72291;55.002;-1.592;2023-09-19T07:52:23;5;3;
82622;PMS5003;72291;55.002;-1.592;2023-09-19T07:54:48;5;4;
82622;PMS5003;72291;55.002;-1.592;2023-09-19T07:57:13;6;3;
82622;PMS5003;72291;55.002;-1.592;2023-09-19T07:59:39;8;7;
82622;PMS5003;72291;55.002;-1.592;2023-09-19T08:02:04;9;3;
82622;PMS5003;72291;55.002;-1.592;2023-09-19T08:04:30;8;4;
82622;PMS5003;72291;55.002;-1.592;2023-09-19T08:06:55;5;4;
82622;PMS5003;72291;55.002;-1.592;2023-09-19T08:09:20;4;4;
82622;PMS5003;72291;55.002;-1.592;2023-09-19T08:11:46;7;4;
82622;PMS5003;72291;55.002;-1.592;2023-09-19T08:14:10;4;2;
82622;PMS5003;72291;55.002;-1.592;2023-09-19T08:16:36;3;2;
82622;PMS5003;72291;55.002;-1.592;2023-09-19T08:19:01;6;3;
82622;PMS5003;72291;55.002;-1.592;2023-09-19T08:21:26;6;4;
82622;PMS5003;72291;55.002;-1.592;2023-09-19T08:23:51;5;3;
82622;PMS5003;72291;55.002;-1.592;2023-09-19T08:26:16;5;3;
82622;PMS5003;72291;55.002;-1.592;2023-09-19T08:28:41;11;8;
82622;PMS5003;72291;55.002;-1.592;2023-09-19T08:31:07;5;4;
82622;PMS5003;72291;55.002;-1.592;2023-09-19T08:33:32;7;5;
82622;PMS5003;72291;55.002;-1.592;2023-09-19T08:35:57;6;5;
82622;PMS5003;72291;55.002;-1.592;2023-09-19T08:38:22;4;4;
82622;PMS5003;72291;55.002;-1.592;2023-09-19T08:40:48;7;4;
82622;PMS5003;72291;55.002;-1.592;2023-09-19T08:43:13;4;3;
82622;PMS5003;72291;55.002;-1.592;2023-09-19T08:45:39;3;3;
82622;PMS5003;72291;55.002;-1.592;2023-09-19T08:48:09;2;2;
82622;PMS5003;72291;55.002;-1.592;2023-09-19T08:50:29;4;4;
82622;PMS5003;72291;55.002;-1.592;2023-09-19T08:52:55;8;4;
82622;PMS5003;72291;55.002;-1.592;2023-09-19T08:55:19;4;4;
82622;PMS5003;72291;55.002;-1.592;2023-09-19T08:57:44;4;3;
82622;PMS5003;72291;55.002;-1.592;2023-09-19T09:00:10;7;4;
82622;PMS5003;72291;55.002;-1.592;2023-09-19T09:02:34;6;5;
82622;PMS5003;72291;55.002;-1.592;2023-09-19T09:05:00;6;4;
82622;PMS5003;72291;55.002;-1.592;2023-09-19T09:07:25;3;2;
82622;PMS5003;72291;55.002;-1.592;2023-09-19T09:09:50;4;4;
82622;PMS5003;72291;55.002;-1.592;2023-09-19T09:12:15;4;4;
82622;PMS5003;72291;55.002;-1.592;2023-09-19T09:14:40;5;3;
82622;PMS5003;72291;55.002;-1.592;2023-09-19T09:17:05;3;3;
82622;PMS5003;72291;55.002;-1.592;2023-09-19T09:19:31;2;2;
82622;PMS5003;72291;55.002;-1.592;2023-09-19T09:24:26;3;2;
82622;PMS5003;72291;55.002;-1.592;2023-09-19T09:26:46;3;2;
82622;PMS5003;72291;55.002;-1.592;2023-09-19T09:29:12;1;0;
82622;PMS5003;72291;55.002;-1.592;2023-09-19T09:31:36;2;1;
82622;PMS5003;72291;55.002;-1.592;2023-09-19T09:34:02;2;2;
82622;PMS5003;72291;55.002;-1.592;2023-09-19T09:36:33;3;2;
82622;PMS5003;72291;55.002;-1.592;2023-09-19T09:38:52;3;2;
82622;PMS5003;72291;55.002;-1.592;2023-09-19T09:41:17;1;0;
82622;PMS5003;72291;55.002;-1.592;2023-09-19T09:43:43;1;0;
82622;PMS5003;72291;55.002;-1.592;2023-09-19T09:46:08;0;0;
82622;PMS5003;72291;55.002;-1.592;2023-09-19T09:48:32;0;0;
82622;PMS5003;72291;55.002;-1.592;2023-09-19T09:50:57;1;1;
82622;PMS5003;72291;55.002;-1.592;2023-09-19T09:53:24;3;1;
82622;PMS5003;72291;55.002;-1.592;2023-09-19T09:58:16;1;1;
82622;PMS5003;72291;55.002;-1.592;2023-09-19T10:00:40;1;1;
82622;PMS5003;72291;55.002;-1.592;2023-09-19T10:03:04;0;0;
82622;PMS5003;72291;55.002;-1.592;2023-09-19T10:05:28;0;0;
82622;PMS5003;72291;55.002;-1.592;2023-09-19T10:07:53;10;7;
82622;PMS5003;72291;55.002;-1.592;2023-09-19T10:12:45;1;1;
82622;PMS5003;72291;55.002;-1.592;2023-09-19T10:15:10;7;6;
82622;PMS5003;72291;55.002;-1.592;2023-09-19T10:17:34;2;1;
82622;PMS5003;72291;55.002;-1.592;2023-09-19T10:19:59;1;1;
82622;PMS5003;72291;55.002;-1.592;2023-09-19T10:22:25;0;0;
82622;PMS5003;72291;55.002;-1.592;2023-09-19T10:24:50;0;0;
82622;PMS5003;72291;55.002;-1.592;2023-09-19T10:27:15;0;0;
82622;PMS5003;72291;55.002;-1.592;2023-09-19T10:29:40;0;0;
82622;PMS5003;72291;55.002;-1.592;2023-09-19T10:32:05;0;0;
82622;PMS5003;72291;55.002;-1.592;2023-09-19T10:34:30;3;2;
82622;PMS5003;72291;55.002;-1.592;2023-09-19T10:36:55;0;0;
82622;PMS5003;72291;55.002;-1.592;2023-09-19T10:39:20;0;0;
82622;PMS5003;72291;55.002;-1.592;2023-09-19T10:41:50;0;0;
82622;PMS5003;72291;55.002;-1.592;2023-09-19T10:44:10;0;0;
82622;PMS5003;72291;55.002;-1.592;2023-09-19T10:46:35;0;0;
82622;PMS5003;72291;55.002;-1.592;2023-09-19T10:49:01;0;0;
82622;PMS5003;72291;55.002;-1.592;2023-09-19T10:51:26;1;0;
82622;PMS5003;72291;55.002;-1.592;2023-09-19T10:53:51;0;0;
82622;PMS5003;72291;55.002;-1.592;2023-09-19T10:56:17;0;0;
82622;PMS5003;72291;55.002;-1.592;2023-09-19T10:58:41;1;0;
82622;PMS5003;72291;55.002;-1.592;2023-09-19T11:01:06;0;0;
82622;PMS5003;72291;55.002;-1.592;2023-09-19T11:03:31;0;0;
82622;PMS5003;72291;55.002;-1.592;2023-09-19T11:06:04;0;0;
82622;PMS5003;72291;55.002;-1.592;2023-09-19T11:08:21;0;0;
82622;PMS5003;72291;55.002;-1.592;2023-09-19T11:10:46;1;0;
82622;PMS5003;72291;55.002;-1.592;2023-09-19T11:18:02;0;0;
82622;PMS5003;72291;55.002;-1.592;2023-09-19T11:20:26;0;0;
82622;PMS5003;72291;55.002;-1.592;2023-09-19T11:39:51;1;1;
82622;PMS5003;72291;55.002;-1.592;2023-09-19T11:44:37;0;0;
82622;PMS5003;72291;55.002;-1.592;2023-09-19T11:47:02;0;0;
82622;PMS5003;72291;55.002;-1.592;2023-09-19T11:49:28;0;0;
82622;PMS5003;72291;55.002;-1.592;2023-09-19T11:51:52;0;0;
82622;PMS5003;72291;55.002;-1.592;2023-09-19T11:54:17;1;0;
82622;PMS5003;72291;55.002;-1.592;2023-09-19T11:56:43;0;0;
82622;PMS5003;72291;55.002;-1.592;2023-09-19T11:59:07;0;0;
82622;PMS5003;72291;55.002;-1.592;2023-09-19T12:01:33;0;0;
82622;PMS5003;72291;55.002;-1.592;2023-09-19T12:03:58;0;0;
82622;PMS5003;72291;55.002;-1.592;2023-09-19T12:06:23;0;0;
82622;PMS5003;72291;55.002;-1.592;2023-09-19T12:08:47;0;0;
82622;PMS5003;72291;55.002;-1.592;2023-09-19T12:11:13;0;0;
82622;PMS5003;72291;55.002;-1.592;2023-09-19T12:13:41;0;0;
82622;PMS5003;72291;55.002;-1.592;2023-09-19T12:16:03;0;0;
82622;PMS5003;72291;55.002;-1.592;2023-09-19T12:18:28;0;0;
82622;PMS5003;72291;55.002;-1.592;2023-09-19T12:20:53;0;0;
82622;PMS5003;72291;55.002;-1.592;2023-09-19T12:23:18;0;0;
82622;PMS5003;72291;55.002;-1.592;2023-09-19T12:25:43;0;0;
82622;PMS5003;72291;55.002;-1.592;2023-09-19T12:28:08;0;0;
82622;PMS5003;72291;55.002;-1.592;2023-09-19T12:30:33;0;0;
82622;PMS5003;72291;55.002;-1.592;2023-09-19T12:32:58;0;0;
82622;PMS5003;72291;55.002;-1.592;2023-09-19T12:35:27;0;0;
82622;PMS5003;72291;55.002;-1.592;2023-09-19T12:37:51;0;0;
82622;PMS5003;72291;55.002;-1.592;2023-09-19T12:40:13;0;0;
82622;PMS5003;72291;55.002;-1.592;2023-09-19T12:42:38;0;0;
82622;PMS5003;72291;55.002;-1.592;2023-09-19T12:45:04;0;0;
82622;PMS5003;72291;55.002;-1.592;2023-09-19T12:47:28;0;0;
82622;PMS5003;72291;55.002;-1.592;2023-09-19T12:52:19;0;0;
82622;PMS5003;72291;55.002;-1.592;2023-09-19T12:54:44;0;0;
82622;PMS5003;72291;55.002;-1.592;2023-09-19T12:57:09;0;0;
82622;PMS5003;72291;55.002;-1.592;2023-09-19T12:59:34;0;0;
82622;PMS5003;72291;55.002;-1.592;2023-09-19T13:02:04;0;0;
82622;PMS5003;72291;55.002;-1.592;2023-09-19T13:04:24;0;0;
82622;PMS5003;72291;55.002;-1.592;2023-09-19T13:06:50;0;0;
82622;PMS5003;72291;55.002;-1.592;2023-09-19T13:09:14;0;0;
82622;PMS5003;72291;55.002;-1.592;2023-09-19T13:11:39;0;0;
82622;PMS5003;72291;55.002;-1.592;2023-09-19T13:14:13;0;0;
82622;PMS5003;72291;55.002;-1.592;2023-09-19T13:16:29;0;0;
82622;PMS5003;72291;55.002;-1.592;2023-09-19T13:18:54;0;0;
82622;PMS5003;72291;55.002;-1.592;2023-09-19T13:23:44;0;0;
82622;PMS5003;72291;55.002;-1.592;2023-09-19T13:26:09;0;0;
82622;PMS5003;72291;55.002;-1.592;2023-09-19T13:28:34;0;0;
82622;PMS5003;72291;55.002;-1.592;2023-09-19T13:31:00;0;0;
82622;PMS5003;72291;55.002;-1.592;2023-09-19T13:33:25;0;0;
82622;PMS5003;72291;55.002;-1.592;2023-09-19T13:35:50;0;0;
82622;PMS5003;72291;55.002;-1.592;2023-09-19T13:38:15;0;0;
82622;PMS5003;72291;55.002;-1.592;2023-09-19T13:40:40;0;0;
82622;PMS5003;72291;55.002;-1.592;2023-09-19T13:43:05;0;0;
82622;PMS5003;72291;55.002;-1.592;2023-09-19T13:45:30;0;0;
82622;PMS5003;72291;55.002;-1.592;2023-09-19T13:47:55;1;0;
82622;PMS5003;72291;55.002;-1.592;2023-09-19T13:50:20;0;0;
82622;PMS5003;72291;55.002;-1.592;2023-09-19T13:52:45;0;0;
82622;PMS5003;72291;55.002;-1.592;2023-09-19T13:55:10;0;0;
82622;PMS5003;72291;55.002;-1.592;2023-09-19T13:57:36;0;0;
82622;PMS5003;72291;55.002;-1.592;2023-09-19T14:00:00;0;0;
82622;PMS5003;72291;55.002;-1.592;2023-09-19T14:02:25;0;0;
82622;PMS5003;72291;55.002;-1.592;2023-09-19T14:04:51;0;0;
82622;PMS5003;72291;55.002;-1.592;2023-09-19T14:07:16;0;0;
82622;PMS5003;72291;55.002;-1.592;2023-09-19T14:09:40;0;0;
82622;PMS5003;72291;55.002;-1.592;2023-09-19T14:12:06;0;0;
82622;PMS5003;72291;55.002;-1.592;2023-09-19T14:14:30;0;0;
82622;PMS5003;72291;55.002;-1.592;2023-09-19T14:16:56;0;0;
82622;PMS5003;72291;55.002;-1.592;2023-09-19T14:19:21;0;0;
82622;PMS5003;72291;55.002;-1.592;2023-09-19T14:21:45;0;0;
82622;PMS5003;72291;55.002;-1.592;2023-09-19T14:24:10;0;0;
82622;PMS5003;72291;55.002;-1.592;2023-09-19T14:26:36;0;0;
82622;PMS5003;72291;55.002;-1.592;2023-09-19T14:29:01;0;0;
82622;PMS5003;72291;55.002;-1.592;2023-09-19T14:31:26;0;0;
82622;PMS5003;72291;55.002;-1.592;2023-09-19T14:33:53;0;0;
82622;PMS5003;72291;55.002;-1.592;2023-09-19T14:36:16;0;0;
82622;PMS5003;72291;55.002;-1.592;2023-09-19T14:38:41;0;0;
82622;PMS5003;72291;55.002;-1.592;2023-09-19T14:41:06;0;0;
82622;PMS5003;72291;55.002;-1.592;2023-09-19T14:43:31;0;0;
82622;PMS5003;72291;55.002;-1.592;2023-09-19T14:45:56;0;0;
82622;PMS5003;72291;55.002;-1.592;2023-09-19T14:48:21;0;0;
82622;PMS5003;72291;55.002;-1.592;2023-09-19T14:50:46;0;0;
82622;PMS5003;72291;55.002;-1.592;2023-09-19T14:53:11;0;0;
82622;PMS5003;72291;55.002;-1.592;2023-09-19T14:55:36;0;0;
82622;PMS5003;72291;55.002;-1.592;2023-09-19T14:58:01;0;0;
82622;PMS5003;72291;55.002;-1.592;2023-09-19T15:00:26;0;0;
82622;PMS5003;72291;55.002;-1.592;2023-09-19T15:02:51;0;0;
82622;PMS5003;72291;55.002;-1.592;2023-09-19T15:05:16;0;0;
82622;PMS5003;72291;55.002;-1.592;2023-09-19T15:07:41;0;0;
82622;PMS5003;72291;55.002;-1.592;2023-09-19T15:10:06;0;0;
82622;PMS5003;72291;55.002;-1.592;2023-09-19T15:12:31;0;0;
82622;PMS5003;72291;55.002;-1.592;2023-09-19T15:14:56;0;0;
82622;PMS5003;72291;55.002;-1.592;2023-09-19T15:17:21;0;0;
82622;PMS5003;72291;55.002;-1.592;2023-09-19T15:19:49;0;0;
82622;PMS5003;72291;55.002;-1.592;2023-09-19T15:22:12;0;0;
82622;PMS5003;72291;55.002;-1.592;2023-09-19T15:24:37;0;0;
82622;PMS5003;72291;55.002;-1.592;2023-09-19T15:27:02;0;0;
82622;PMS5003;72291;55.002;-1.592;2023-09-19T15:29:27;0;0;
82622;PMS5003;72291;55.002;-1.592;2023-09-19T15:31:53;0;0;
82622;PMS5003;72291;55.002;-1.592;2023-09-19T15:34:17;0;0;
82622;PMS5003;72291;55.002;-1.592;2023-09-19T15:36:42;0;0;
82622;PMS5003;72291;55.002;-1.592;2023-09-19T15:39:07;0;0;
82622;PMS5003;72291;55.002;-1.592;2023-09-19T15:41:33;0;0;
82622;PMS5003;72291;55.002;-1.592;2023-09-19T15:43:57;0;0;
82622;PMS5003;72291;55.002;-1.592;2023-09-19T15:46:22;0;0;
82622;PMS5003;72291;55.002;-1.592;2023-09-19T15:48:47;0;0;
82622;PMS5003;72291;55.002;-1.592;2023-09-19T15:51:12;0;0;
82622;PMS5003;72291;55.002;-1.592;2023-09-19T15:53:41;0;0;
82622;PMS5003;72291;55.002;-1.592;2023-09-19T15:56:05;0;0;
82622;PMS5003;72291;55.002;-1.592;2023-09-19T15:58:27;0;0;
82622;PMS5003;72291;55.002;-1.592;2023-09-19T16:00:52;0;0;
82622;PMS5003;72291;55.002;-1.592;2023-09-19T16:03:18;0;0;
82622;PMS5003;72291;55.002;-1.592;2023-09-19T16:05:43;0;0;
82622;PMS5003;72291;55.002;-1.592;2023-09-19T16:08:08;0;0;
82622;PMS5003;72291;55.002;-1.592;2023-09-19T16:10:34;0;0;
82622;PMS5003;72291;55.002;-1.592;2023-09-19T16:12:57;0;0;
82622;PMS5003;72291;55.002;-1.592;2023-09-19T16:15:23;0;0;
82622;PMS5003;72291;55.002;-1.592;2023-09-19T16:17:48;0;0;
82622;PMS5003;72291;55.002;-1.592;2023-09-19T16:20:13;0;0;
82622;PMS5003;72291;55.002;-1.592;2023-09-19T16:22:38;0;0;
82622;PMS5003;72291;55.002;-1.592;2023-09-19T16:25:03;0;0;
82622;PMS5003;72291;55.002;-1.592;2023-09-19T16:27:28;0;0;
82622;PMS5003;72291;55.002;-1.592;2023-09-19T16:29:53;0;0;
82622;PMS5003;72291;55.002;-1.592;2023-09-19T16:32:18;0;0;
82622;PMS5003;72291;55.002;-1.592;2023-09-19T16:34:43;0;0;
82622;PMS5003;72291;55.002;-1.592;2023-09-19T16:37:08;0;0;
82622;PMS5003;72291;55.002;-1.592;2023-09-19T16:39:33;0;0;
82622;PMS5003;72291;55.002;-1.592;2023-09-19T16:41:58;0;0;
82622;PMS5003;72291;55.002;-1.592;2023-09-19T16:44:23;0;0;
82622;PMS5003;72291;55.002;-1.592;2023-09-19T16:46:48;0;0;
82622;PMS5003;72291;55.002;-1.592;2023-09-19T16:49:13;0;0;
82622;PMS5003;72291;55.002;-1.592;2023-09-19T16:51:38;0;0;
82622;PMS5003;72291;55.002;-1.592;2023-09-19T16:54:04;0;0;
82622;PMS5003;72291;55.002;-1.592;2023-09-19T16:56:28;0;0;
82622;PMS5003;72291;55.002;-1.592;2023-09-19T16:58:53;0;0;